sensor_id;sensor_type;location;lat;lon;timestamp;temperature;humidity
75621;DHT22;64574;48.506;-2.750;2023-02-17T00:01:22;11.90;86.60
75621;DHT22;64574;48.506;-2.750;2023-02-17T00:03:49;11.90;86.70
75621;DHT22;64574;48.506;-2.750;2023-02-17T00:06:17;11.90;86.60
75621;DHT22;64574;48.506;-2.750;2023-02-17T00:08:43;11.90;86.50
75621;DHT22;64574;48.506;-2.750;2023-02-17T00:11:09;11.90;86.50
75621;DHT22;64574;48.506;-2.750;2023-02-17T00:13:35;11.90;86.80
75621;DHT22;64574;48.506;-2.750;2023-02-17T00:16:19;11.90;86.90
75621;DHT22;64574;48.506;-2.750;2023-02-17T00:18:46;11.90;87.00
75621;DHT22;64574;48.506;-2.750;2023-02-17T00:21:21;11.90;87.00
75621;DHT22;64574;48.506;-2.750;2023-02-17T00:23:50;11.80;87.10
75621;DHT22;64574;48.506;-2.750;2023-02-17T00:26:17;11.80;87.10
75621;DHT22;64574;48.506;-2.750;2023-02-17T00:28:44;11.80;87.20
75621;DHT22;64574;48.506;-2.750;2023-02-17T00:31:14;11.80;87.30
75621;DHT22;64574;48.506;-2.750;2023-02-17T00:33:40;11.80;87.30
75621;DHT22;64574;48.506;-2.750;2023-02-17T00:36:12;11.80;87.30
75621;DHT22;64574;48.506;-2.750;2023-02-17T00:38:38;11.70;87.40
75621;DHT22;64574;48.506;-2.750;2023-02-17T00:41:04;11.80;87.40
75621;DHT22;64574;48.506;-2.750;2023-02-17T00:43:30;11.80;87.50
75621;DHT22;64574;48.506;-2.750;2023-02-17T00:45:55;11.70;87.50
75621;DHT22;64574;48.506;-2.750;2023-02-17T00:48:21;11.70;87.50
75621;DHT22;64574;48.506;-2.750;2023-02-17T00:50:47;11.70;87.50
75621;DHT22;64574;48.506;-2.750;2023-02-17T00:53:14;11.70;87.60
75621;DHT22;64574;48.506;-2.750;2023-02-17T00:55:39;11.80;87.70
75621;DHT22;64574;48.506;-2.750;2023-02-17T00:58:05;11.80;87.60
75621;DHT22;64574;48.506;-2.750;2023-02-17T01:00:31;11.80;87.50
75621;DHT22;64574;48.506;-2.750;2023-02-17T01:02:56;11.70;87.60
75621;DHT22;64574;48.506;-2.750;2023-02-17T01:05:22;11.70;87.70
75621;DHT22;64574;48.506;-2.750;2023-02-17T01:07:47;11.80;87.70
75621;DHT22;64574;48.506;-2.750;2023-02-17T01:10:13;11.70;87.70
75621;DHT22;64574;48.506;-2.750;2023-02-17T01:12:39;11.70;87.70
75621;DHT22;64574;48.506;-2.750;2023-02-17T01:15:05;11.70;87.70
75621;DHT22;64574;48.506;-2.750;2023-02-17T01:17:30;11.80;87.70
75621;DHT22;64574;48.506;-2.750;2023-02-17T01:19:56;11.80;87.70
75621;DHT22;64574;48.506;-2.750;2023-02-17T01:22:22;11.80;87.60
75621;DHT22;64574;48.506;-2.750;2023-02-17T01:24:48;11.80;87.70
75621;DHT22;64574;48.506;-2.750;2023-02-17T01:27:13;11.90;87.60
75621;DHT22;64574;48.506;-2.750;2023-02-17T01:29:39;11.80;87.60
75621;DHT22;64574;48.506;-2.750;2023-02-17T01:32:04;11.90;87.60
75621;DHT22;64574;48.506;-2.750;2023-02-17T01:34:30;11.90;87.60
75621;DHT22;64574;48.506;-2.750;2023-02-17T01:36:56;11.90;87.60
75621;DHT22;64574;48.506;-2.750;2023-02-17T01:39:21;11.90;87.60
75621;DHT22;64574;48.506;-2.750;2023-02-17T01:41:47;11.90;87.50
75621;DHT22;64574;48.506;-2.750;2023-02-17T01:44:18;11.90;87.50
75621;DHT22;64574;48.506;-2.750;2023-02-17T01:46:46;11.90;87.50
75621;DHT22;64574;48.506;-2.750;2023-02-17T01:49:17;11.90;87.50
75621;DHT22;64574;48.506;-2.750;2023-02-17T01:51:47;11.80;87.40
75621;DHT22;64574;48.506;-2.750;2023-02-17T01:54:29;11.80;87.50
75621;DHT22;64574;48.506;-2.750;2023-02-17T01:56:58;11.80;87.60
75621;DHT22;64574;48.506;-2.750;2023-02-17T01:59:25;11.80;87.60
75621;DHT22;64574;48.506;-2.750;2023-02-17T02:01:54;11.80;87.70
75621;DHT22;64574;48.506;-2.750;2023-02-17T02:04:25;11.80;87.60
75621;DHT22;64574;48.506;-2.750;2023-02-17T02:06:52;11.80;87.60
75621;DHT22;64574;48.506;-2.750;2023-02-17T02:09:21;11.90;87.60
75621;DHT22;64574;48.506;-2.750;2023-02-17T02:11:49;11.80;87.60
75621;DHT22;64574;48.506;-2.750;2023-02-17T02:14:17;11.90;87.60
75621;DHT22;64574;48.506;-2.750;2023-02-17T02:37:46;11.80;87.60
75621;DHT22;64574;48.506;-2.750;2023-02-17T02:40:15;11.80;87.70
75621;DHT22;64574;48.506;-2.750;2023-02-17T02:42:45;11.80;87.80
75621;DHT22;64574;48.506;-2.750;2023-02-17T02:45:11;11.80;87.70
75621;DHT22;64574;48.506;-2.750;2023-02-17T02:47:55;11.80;87.70
75621;DHT22;64574;48.506;-2.750;2023-02-17T02:53:16;11.90;87.80
75621;DHT22;64574;48.506;-2.750;2023-02-17T02:56:21;11.80;87.80
75621;DHT22;64574;48.506;-2.750;2023-02-17T03:04:32;11.70;87.80
75621;DHT22;64574;48.506;-2.750;2023-02-17T03:07:07;11.80;87.90
75621;DHT22;64574;48.506;-2.750;2023-02-17T03:09:33;11.80;88.00
75621;DHT22;64574;48.506;-2.750;2023-02-17T03:11:59;11.80;87.90
75621;DHT22;64574;48.506;-2.750;2023-02-17T03:14:26;11.80;87.80
75621;DHT22;64574;48.506;-2.750;2023-02-17T03:16:52;11.80;87.80
75621;DHT22;64574;48.506;-2.750;2023-02-17T03:19:21;11.80;87.80
75621;DHT22;64574;48.506;-2.750;2023-02-17T03:24:33;11.80;87.70
75621;DHT22;64574;48.506;-2.750;2023-02-17T03:26:59;11.70;87.80
75621;DHT22;64574;48.506;-2.750;2023-02-17T03:29:24;11.70;87.70
75621;DHT22;64574;48.506;-2.750;2023-02-17T03:31:50;11.80;87.70
75621;DHT22;64574;48.506;-2.750;2023-02-17T03:34:15;11.80;87.60
75621;DHT22;64574;48.506;-2.750;2023-02-17T03:36:41;11.80;87.60
75621;DHT22;64574;48.506;-2.750;2023-02-17T03:39:07;11.80;87.50
75621;DHT22;64574;48.506;-2.750;2023-02-17T03:41:32;11.80;87.50
75621;DHT22;64574;48.506;-2.750;2023-02-17T03:43:58;11.80;87.50
75621;DHT22;64574;48.506;-2.750;2023-02-17T03:46:23;11.80;87.50
75621;DHT22;64574;48.506;-2.750;2023-02-17T03:48:49;11.80;87.40
75621;DHT22;64574;48.506;-2.750;2023-02-17T03:51:17;11.80;87.30
75621;DHT22;64574;48.506;-2.750;2023-02-17T03:53:43;11.80;87.30
75621;DHT22;64574;48.506;-2.750;2023-02-17T03:56:10;11.80;87.30
75621;DHT22;64574;48.506;-2.750;2023-02-17T03:58:36;11.70;87.30
75621;DHT22;64574;48.506;-2.750;2023-02-17T04:01:02;11.70;87.20
75621;DHT22;64574;48.506;-2.750;2023-02-17T04:03:27;11.70;87.20
75621;DHT22;64574;48.506;-2.750;2023-02-17T04:05:54;11.70;87.30
75621;DHT22;64574;48.506;-2.750;2023-02-17T04:08:20;11.70;87.30
75621;DHT22;64574;48.506;-2.750;2023-02-17T04:10:49;11.70;87.20
75621;DHT22;64574;48.506;-2.750;2023-02-17T04:13:15;11.80;87.20
75621;DHT22;64574;48.506;-2.750;2023-02-17T04:15:40;11.80;87.20
75621;DHT22;64574;48.506;-2.750;2023-02-17T04:18:06;11.70;87.10
75621;DHT22;64574;48.506;-2.750;2023-02-17T04:20:32;11.70;87.20
75621;DHT22;64574;48.506;-2.750;2023-02-17T04:22:57;11.70;87.20
75621;DHT22;64574;48.506;-2.750;2023-02-17T04:25:23;11.70;87.20
75621;DHT22;64574;48.506;-2.750;2023-02-17T04:27:48;11.70;87.20
75621;DHT22;64574;48.506;-2.750;2023-02-17T04:30:14;11.70;87.30
75621;DHT22;64574;48.506;-2.750;2023-02-17T04:32:40;11.70;87.30
75621;DHT22;64574;48.506;-2.750;2023-02-17T04:35:06;11.70;87.20
75621;DHT22;64574;48.506;-2.750;2023-02-17T04:37:31;11.70;87.30
75621;DHT22;64574;48.506;-2.750;2023-02-17T04:39:57;11.70;87.20
75621;DHT22;64574;48.506;-2.750;2023-02-17T04:42:23;11.70;87.20
75621;DHT22;64574;48.506;-2.750;2023-02-17T04:44:48;11.60;87.20
75621;DHT22;64574;48.506;-2.750;2023-02-17T04:47:14;11.50;87.20
75621;DHT22;64574;48.506;-2.750;2023-02-17T04:49:39;11.50;87.30
75621;DHT22;64574;48.506;-2.750;2023-02-17T04:52:05;11.50;87.50
75621;DHT22;64574;48.506;-2.750;2023-02-17T04:54:30;11.50;87.50
75621;DHT22;64574;48.506;-2.750;2023-02-17T04:56:56;11.50;87.50
75621;DHT22;64574;48.506;-2.750;2023-02-17T04:59:21;11.50;87.50
75621;DHT22;64574;48.506;-2.750;2023-02-17T05:01:47;11.50;87.50
75621;DHT22;64574;48.506;-2.750;2023-02-17T05:04:13;11.50;87.60
75621;DHT22;64574;48.506;-2.750;2023-02-17T05:06:38;11.50;87.60
75621;DHT22;64574;48.506;-2.750;2023-02-17T05:09:04;11.50;87.70
75621;DHT22;64574;48.506;-2.750;2023-02-17T05:11:29;11.50;87.70
75621;DHT22;64574;48.506;-2.750;2023-02-17T05:13:56;11.50;87.80
75621;DHT22;64574;48.506;-2.750;2023-02-17T05:16:21;11.50;87.70
75621;DHT22;64574;48.506;-2.750;2023-02-17T05:18:47;11.50;87.60
75621;DHT22;64574;48.506;-2.750;2023-02-17T05:21:13;11.50;87.60
75621;DHT22;64574;48.506;-2.750;2023-02-17T05:23:38;11.50;87.70
75621;DHT22;64574;48.506;-2.750;2023-02-17T05:26:09;11.50;87.70
75621;DHT22;64574;48.506;-2.750;2023-02-17T05:28:36;11.50;87.60
75621;DHT22;64574;48.506;-2.750;2023-02-17T05:31:02;11.50;87.70
75621;DHT22;64574;48.506;-2.750;2023-02-17T05:33:27;11.50;87.70
75621;DHT22;64574;48.506;-2.750;2023-02-17T05:35:53;11.50;87.60
75621;DHT22;64574;48.506;-2.750;2023-02-17T05:38:19;11.50;87.60
75621;DHT22;64574;48.506;-2.750;2023-02-17T05:40:44;11.50;87.50
75621;DHT22;64574;48.506;-2.750;2023-02-17T05:43:10;11.50;87.50
75621;DHT22;64574;48.506;-2.750;2023-02-17T05:45:36;11.50;87.40
75621;DHT22;64574;48.506;-2.750;2023-02-17T05:48:01;11.60;87.40
75621;DHT22;64574;48.506;-2.750;2023-02-17T05:50:27;11.60;87.30
75621;DHT22;64574;48.506;-2.750;2023-02-17T05:52:53;11.60;87.50
75621;DHT22;64574;48.506;-2.750;2023-02-17T05:55:18;11.60;87.50
75621;DHT22;64574;48.506;-2.750;2023-02-17T05:57:44;11.60;87.50
75621;DHT22;64574;48.506;-2.750;2023-02-17T06:00:10;11.60;87.70
75621;DHT22;64574;48.506;-2.750;2023-02-17T06:02:36;11.60;87.60
75621;DHT22;64574;48.506;-2.750;2023-02-17T06:05:01;11.60;87.60
75621;DHT22;64574;48.506;-2.750;2023-02-17T06:07:27;11.50;87.80
75621;DHT22;64574;48.506;-2.750;2023-02-17T06:09:52;11.50;87.80
75621;DHT22;64574;48.506;-2.750;2023-02-17T06:12:18;11.50;87.90
75621;DHT22;64574;48.506;-2.750;2023-02-17T06:14:43;11.60;87.90
75621;DHT22;64574;48.506;-2.750;2023-02-17T06:17:09;11.50;87.80
75621;DHT22;64574;48.506;-2.750;2023-02-17T06:19:35;11.50;87.90
75621;DHT22;64574;48.506;-2.750;2023-02-17T06:22:00;11.50;88.00
75621;DHT22;64574;48.506;-2.750;2023-02-17T06:24:26;11.50;88.10
75621;DHT22;64574;48.506;-2.750;2023-02-17T06:26:52;11.50;88.00
75621;DHT22;64574;48.506;-2.750;2023-02-17T06:29:17;11.50;88.00
75621;DHT22;64574;48.506;-2.750;2023-02-17T06:31:43;11.60;87.90
75621;DHT22;64574;48.506;-2.750;2023-02-17T06:34:08;11.60;87.70
75621;DHT22;64574;48.506;-2.750;2023-02-17T06:36:34;11.50;87.60
75621;DHT22;64574;48.506;-2.750;2023-02-17T06:38:59;11.50;87.50
75621;DHT22;64574;48.506;-2.750;2023-02-17T06:41:25;11.50;87.30
75621;DHT22;64574;48.506;-2.750;2023-02-17T06:43:51;11.50;87.20
75621;DHT22;64574;48.506;-2.750;2023-02-17T06:46:16;11.50;87.10
75621;DHT22;64574;48.506;-2.750;2023-02-17T06:48:42;11.50;87.10
75621;DHT22;64574;48.506;-2.750;2023-02-17T06:51:07;11.50;86.90
75621;DHT22;64574;48.506;-2.750;2023-02-17T06:53:33;11.50;86.90
75621;DHT22;64574;48.506;-2.750;2023-02-17T06:55:59;11.50;86.90
75621;DHT22;64574;48.506;-2.750;2023-02-17T06:58:25;11.50;86.80
75621;DHT22;64574;48.506;-2.750;2023-02-17T07:00:50;11.50;86.70
75621;DHT22;64574;48.506;-2.750;2023-02-17T07:03:16;11.50;86.60
75621;DHT22;64574;48.506;-2.750;2023-02-17T07:05:41;11.50;86.60
75621;DHT22;64574;48.506;-2.750;2023-02-17T07:08:07;11.50;86.40
75621;DHT22;64574;48.506;-2.750;2023-02-17T07:10:33;11.50;86.40
75621;DHT22;64574;48.506;-2.750;2023-02-17T07:12:59;11.50;86.30
75621;DHT22;64574;48.506;-2.750;2023-02-17T07:15:24;11.50;86.20
75621;DHT22;64574;48.506;-2.750;2023-02-17T07:17:50;11.50;86.30
75621;DHT22;64574;48.506;-2.750;2023-02-17T07:20:15;11.50;86.00
75621;DHT22;64574;48.506;-2.750;2023-02-17T07:22:41;11.50;86.00
75621;DHT22;64574;48.506;-2.750;2023-02-17T07:25:07;11.50;86.00
75621;DHT22;64574;48.506;-2.750;2023-02-17T07:27:35;11.50;85.80
75621;DHT22;64574;48.506;-2.750;2023-02-17T07:30:00;11.50;85.80
75621;DHT22;64574;48.506;-2.750;2023-02-17T07:32:26;11.50;85.80
75621;DHT22;64574;48.506;-2.750;2023-02-17T07:34:52;11.40;85.80
75621;DHT22;64574;48.506;-2.750;2023-02-17T07:37:18;11.50;85.70
75621;DHT22;64574;48.506;-2.750;2023-02-17T07:39:46;11.50;85.60
75621;DHT22;64574;48.506;-2.750;2023-02-17T07:42:12;11.50;85.50
75621;DHT22;64574;48.506;-2.750;2023-02-17T07:44:38;11.50;85.50
75621;DHT22;64574;48.506;-2.750;2023-02-17T07:47:04;11.50;85.30
75621;DHT22;64574;48.506;-2.750;2023-02-17T07:49:29;11.40;85.40
75621;DHT22;64574;48.506;-2.750;2023-02-17T07:51:55;11.40;85.30
75621;DHT22;64574;48.506;-2.750;2023-02-17T07:54:21;11.40;85.40
75621;DHT22;64574;48.506;-2.750;2023-02-17T07:56:46;11.50;85.40
75621;DHT22;64574;48.506;-2.750;2023-02-17T07:59:13;11.50;85.20
75621;DHT22;64574;48.506;-2.750;2023-02-17T08:01:39;11.50;85.20
75621;DHT22;64574;48.506;-2.750;2023-02-17T08:04:05;11.50;85.30
75621;DHT22;64574;48.506;-2.750;2023-02-17T08:06:30;11.50;85.20
75621;DHT22;64574;48.506;-2.750;2023-02-17T08:08:56;11.50;85.20
75621;DHT22;64574;48.506;-2.750;2023-02-17T08:11:41;11.50;85.00
75621;DHT22;64574;48.506;-2.750;2023-02-17T08:14:28;11.50;85.10
75621;DHT22;64574;48.506;-2.750;2023-02-17T08:16:54;11.50;85.00
75621;DHT22;64574;48.506;-2.750;2023-02-17T08:19:20;11.50;84.80
75621;DHT22;64574;48.506;-2.750;2023-02-17T08:21:46;11.60;84.80
75621;DHT22;64574;48.506;-2.750;2023-02-17T08:24:12;11.60;84.70
75621;DHT22;64574;48.506;-2.750;2023-02-17T08:26:38;11.60;84.60
75621;DHT22;64574;48.506;-2.750;2023-02-17T08:29:04;11.70;84.60
75621;DHT22;64574;48.506;-2.750;2023-02-17T08:31:33;11.70;84.60
75621;DHT22;64574;48.506;-2.750;2023-02-17T08:34:00;11.70;84.50
75621;DHT22;64574;48.506;-2.750;2023-02-17T08:36:28;11.70;84.40
75621;DHT22;64574;48.506;-2.750;2023-02-17T08:38:54;11.80;84.10
75621;DHT22;64574;48.506;-2.750;2023-02-17T08:41:30;11.80;84.00
75621;DHT22;64574;48.506;-2.750;2023-02-17T08:43:58;11.90;84.10
75621;DHT22;64574;48.506;-2.750;2023-02-17T08:46:24;11.90;84.10
75621;DHT22;64574;48.506;-2.750;2023-02-17T08:48:50;11.90;83.90
75621;DHT22;64574;48.506;-2.750;2023-02-17T08:51:19;11.90;83.70
75621;DHT22;64574;48.506;-2.750;2023-02-17T08:53:51;11.90;83.70
75621;DHT22;64574;48.506;-2.750;2023-02-17T08:56:16;11.90;83.60
75621;DHT22;64574;48.506;-2.750;2023-02-17T08:58:42;11.90;83.50
75621;DHT22;64574;48.506;-2.750;2023-02-17T09:01:08;11.90;83.40
75621;DHT22;64574;48.506;-2.750;2023-02-17T09:03:35;11.90;83.40
75621;DHT22;64574;48.506;-2.750;2023-02-17T09:06:02;11.90;83.40
75621;DHT22;64574;48.506;-2.750;2023-02-17T09:08:28;11.90;83.20
75621;DHT22;64574;48.506;-2.750;2023-02-17T09:10:54;12.00;83.00
75621;DHT22;64574;48.506;-2.750;2023-02-17T09:13:19;12.00;83.20
75621;DHT22;64574;48.506;-2.750;2023-02-17T09:15:45;12.00;83.00
75621;DHT22;64574;48.506;-2.750;2023-02-17T09:18:11;12.00;83.00
75621;DHT22;64574;48.506;-2.750;2023-02-17T09:20:37;12.00;83.00
75621;DHT22;64574;48.506;-2.750;2023-02-17T09:23:04;12.00;83.00
75621;DHT22;64574;48.506;-2.750;2023-02-17T09:25:29;11.90;83.00
75621;DHT22;64574;48.506;-2.750;2023-02-17T09:27:55;11.90;82.80
75621;DHT22;64574;48.506;-2.750;2023-02-17T09:30:21;11.90;82.90
75621;DHT22;64574;48.506;-2.750;2023-02-17T09:32:46;12.00;83.00
75621;DHT22;64574;48.506;-2.750;2023-02-17T09:35:16;12.10;82.80
75621;DHT22;64574;48.506;-2.750;2023-02-17T09:37:42;12.10;82.50
75621;DHT22;64574;48.506;-2.750;2023-02-17T09:40:42;12.20;82.50
75621;DHT22;64574;48.506;-2.750;2023-02-17T09:43:22;12.20;82.20
75621;DHT22;64574;48.506;-2.750;2023-02-17T09:45:52;12.20;82.20
75621;DHT22;64574;48.506;-2.750;2023-02-17T09:48:23;12.10;82.10
75621;DHT22;64574;48.506;-2.750;2023-02-17T09:51:04;12.10;82.10
75621;DHT22;64574;48.506;-2.750;2023-02-17T09:53:42;12.10;82.10
75621;DHT22;64574;48.506;-2.750;2023-02-17T09:56:14;12.10;82.10
75621;DHT22;64574;48.506;-2.750;2023-02-17T09:58:44;12.00;82.10
75621;DHT22;64574;48.506;-2.750;2023-02-17T10:01:20;12.00;82.30
75621;DHT22;64574;48.506;-2.750;2023-02-17T10:04:08;12.10;82.00
75621;DHT22;64574;48.506;-2.750;2023-02-17T10:06:39;12.10;82.10
75621;DHT22;64574;48.506;-2.750;2023-02-17T10:09:11;12.30;81.90
75621;DHT22;64574;48.506;-2.750;2023-02-17T10:11:40;12.30;81.40
75621;DHT22;64574;48.506;-2.750;2023-02-17T10:14:26;12.30;81.10
75621;DHT22;64574;48.506;-2.750;2023-02-17T10:17:01;12.50;80.90
75621;DHT22;64574;48.506;-2.750;2023-02-17T10:19:35;12.50;81.00
75621;DHT22;64574;48.506;-2.750;2023-02-17T10:22:17;12.50;80.90
75621;DHT22;64574;48.506;-2.750;2023-02-17T10:24:44;12.50;80.70
75621;DHT22;64574;48.506;-2.750;2023-02-17T10:29:49;12.50;80.60
75621;DHT22;64574;48.506;-2.750;2023-02-17T10:32:24;12.50;80.70
75621;DHT22;64574;48.506;-2.750;2023-02-17T10:40:23;12.50;80.20
75621;DHT22;64574;48.506;-2.750;2023-02-17T10:42:54;12.50;80.00
75621;DHT22;64574;48.506;-2.750;2023-02-17T10:48:23;12.50;79.70
75621;DHT22;64574;48.506;-2.750;2023-02-17T10:50:50;12.70;80.00
75621;DHT22;64574;48.506;-2.750;2023-02-17T10:53:19;12.80;79.70
75621;DHT22;64574;48.506;-2.750;2023-02-17T10:58:53;12.80;79.30
75621;DHT22;64574;48.506;-2.750;2023-02-17T11:01:20;12.80;79.20
75621;DHT22;64574;48.506;-2.750;2023-02-17T11:04:01;12.80;79.10
75621;DHT22;64574;48.506;-2.750;2023-02-17T11:06:28;12.70;79.40
75621;DHT22;64574;48.506;-2.750;2023-02-17T11:11:23;12.60;79.60
75621;DHT22;64574;48.506;-2.750;2023-02-17T11:16:36;12.70;79.50
75621;DHT22;64574;48.506;-2.750;2023-02-17T11:19:06;12.70;79.70
75621;DHT22;64574;48.506;-2.750;2023-02-17T11:21:43;12.70;79.80
75621;DHT22;64574;48.506;-2.750;2023-02-17T11:24:11;12.80;79.80
75621;DHT22;64574;48.506;-2.750;2023-02-17T11:26:37;12.80;79.30
75621;DHT22;64574;48.506;-2.750;2023-02-17T11:29:16;12.80;79.30
75621;DHT22;64574;48.506;-2.750;2023-02-17T11:31:56;12.90;78.90
75621;DHT22;64574;48.506;-2.750;2023-02-17T11:34:26;12.90;78.60
75621;DHT22;64574;48.506;-2.750;2023-02-17T11:37:19;12.90;78.40
75621;DHT22;64574;48.506;-2.750;2023-02-17T11:39:50;12.90;78.10
75621;DHT22;64574;48.506;-2.750;2023-02-17T11:44:46;12.90;77.90
75621;DHT22;64574;48.506;-2.750;2023-02-17T11:50:04;12.90;77.30
75621;DHT22;64574;48.506;-2.750;2023-02-17T11:57:40;12.90;77.70
75621;DHT22;64574;48.506;-2.750;2023-02-17T12:00:19;12.90;77.70
75621;DHT22;64574;48.506;-2.750;2023-02-17T12:16:15;13.00;77.70
75621;DHT22;64574;48.506;-2.750;2023-02-17T12:21:23;13.00;77.60
75621;DHT22;64574;48.506;-2.750;2023-02-17T12:26:48;13.10;77.50
75621;DHT22;64574;48.506;-2.750;2023-02-17T12:32:51;13.10;76.70
75621;DHT22;64574;48.506;-2.750;2023-02-17T12:35:23;13.10;76.90
75621;DHT22;64574;48.506;-2.750;2023-02-17T12:37:54;13.10;76.90
75621;DHT22;64574;48.506;-2.750;2023-02-17T12:40:35;13.10;76.90
75621;DHT22;64574;48.506;-2.750;2023-02-17T12:43:35;13.10;77.00
75621;DHT22;64574;48.506;-2.750;2023-02-17T12:46:04;13.10;77.00
75621;DHT22;64574;48.506;-2.750;2023-02-17T12:48:39;13.10;77.20
75621;DHT22;64574;48.506;-2.750;2023-02-17T12:51:21;13.10;77.10
75621;DHT22;64574;48.506;-2.750;2023-02-17T12:53:50;13.00;77.20
75621;DHT22;64574;48.506;-2.750;2023-02-17T12:59:29;13.00;77.30
75621;DHT22;64574;48.506;-2.750;2023-02-17T13:04:28;13.10;77.30
75621;DHT22;64574;48.506;-2.750;2023-02-17T13:07:15;13.10;77.20
75621;DHT22;64574;48.506;-2.750;2023-02-17T13:09:45;13.10;76.70
75621;DHT22;64574;48.506;-2.750;2023-02-17T13:15:00;13.00;76.40
75621;DHT22;64574;48.506;-2.750;2023-02-17T13:17:37;13.00;76.50
75621;DHT22;64574;48.506;-2.750;2023-02-17T13:22:29;13.10;76.20
75621;DHT22;64574;48.506;-2.750;2023-02-17T13:24:55;13.10;75.90
75621;DHT22;64574;48.506;-2.750;2023-02-17T13:32:41;13.20;75.30
75621;DHT22;64574;48.506;-2.750;2023-02-17T13:35:28;13.20;74.80
75621;DHT22;64574;48.506;-2.750;2023-02-17T13:37:55;13.20;74.90
75621;DHT22;64574;48.506;-2.750;2023-02-17T13:42:56;13.20;74.50
75621;DHT22;64574;48.506;-2.750;2023-02-17T13:47:59;13.30;74.40
75621;DHT22;64574;48.506;-2.750;2023-02-17T13:52:54;13.30;74.10
75621;DHT22;64574;48.506;-2.750;2023-02-17T13:55:20;13.10;74.50
75621;DHT22;64574;48.506;-2.750;2023-02-17T13:57:58;13.10;74.80
75621;DHT22;64574;48.506;-2.750;2023-02-17T14:00:26;13.00;75.00
75621;DHT22;64574;48.506;-2.750;2023-02-17T14:03:19;13.00;75.20
75621;DHT22;64574;48.506;-2.750;2023-02-17T14:05:47;13.00;75.20
75621;DHT22;64574;48.506;-2.750;2023-02-17T14:08:33;13.00;75.10
75621;DHT22;64574;48.506;-2.750;2023-02-17T14:11:17;13.00;75.10
75621;DHT22;64574;48.506;-2.750;2023-02-17T14:13:46;13.00;75.20
75621;DHT22;64574;48.506;-2.750;2023-02-17T14:16:34;13.10;75.10
75621;DHT22;64574;48.506;-2.750;2023-02-17T14:19:12;13.10;74.60
75621;DHT22;64574;48.506;-2.750;2023-02-17T14:22:04;13.10;73.80
75621;DHT22;64574;48.506;-2.750;2023-02-17T14:24:31;13.10;73.30
75621;DHT22;64574;48.506;-2.750;2023-02-17T14:27:04;13.10;73.30
75621;DHT22;64574;48.506;-2.750;2023-02-17T14:29:45;13.00;73.70
75621;DHT22;64574;48.506;-2.750;2023-02-17T14:32:27;13.10;73.70
75621;DHT22;64574;48.506;-2.750;2023-02-17T14:34:52;13.10;74.00
75621;DHT22;64574;48.506;-2.750;2023-02-17T14:37:23;13.10;73.80
75621;DHT22;64574;48.506;-2.750;2023-02-17T14:39:49;13.00;73.90
75621;DHT22;64574;48.506;-2.750;2023-02-17T14:42:15;13.10;73.80
75621;DHT22;64574;48.506;-2.750;2023-02-17T14:44:40;13.10;73.30
75621;DHT22;64574;48.506;-2.750;2023-02-17T14:47:07;13.10;73.30
75621;DHT22;64574;48.506;-2.750;2023-02-17T14:49:32;13.10;73.10
75621;DHT22;64574;48.506;-2.750;2023-02-17T14:51:58;13.10;73.10
75621;DHT22;64574;48.506;-2.750;2023-02-17T14:54:27;13.10;73.10
75621;DHT22;64574;48.506;-2.750;2023-02-17T14:57:07;13.10;73.00
75621;DHT22;64574;48.506;-2.750;2023-02-17T14:59:35;13.00;73.80
75621;DHT22;64574;48.506;-2.750;2023-02-17T15:02:01;13.10;74.00
75621;DHT22;64574;48.506;-2.750;2023-02-17T15:04:26;13.00;74.20
75621;DHT22;64574;48.506;-2.750;2023-02-17T15:06:52;12.90;74.20
75621;DHT22;64574;48.506;-2.750;2023-02-17T15:09:29;12.90;74.40
75621;DHT22;64574;48.506;-2.750;2023-02-17T15:11:55;13.00;74.20
75621;DHT22;64574;48.506;-2.750;2023-02-17T15:14:21;12.90;74.10
75621;DHT22;64574;48.506;-2.750;2023-02-17T15:16:47;13.00;73.80
75621;DHT22;64574;48.506;-2.750;2023-02-17T15:19:14;13.00;72.90
75621;DHT22;64574;48.506;-2.750;2023-02-17T15:21:45;13.00;72.80
75621;DHT22;64574;48.506;-2.750;2023-02-17T15:24:17;13.00;72.20
75621;DHT22;64574;48.506;-2.750;2023-02-17T15:26:43;13.00;72.30
75621;DHT22;64574;48.506;-2.750;2023-02-17T15:29:17;13.00;71.80
75621;DHT22;64574;48.506;-2.750;2023-02-17T15:31:43;13.00;71.80
75621;DHT22;64574;48.506;-2.750;2023-02-17T15:34:18;13.00;72.00
75621;DHT22;64574;48.506;-2.750;2023-02-17T15:36:44;13.10;71.90
75621;DHT22;64574;48.506;-2.750;2023-02-17T15:39:11;13.10;71.80
75621;DHT22;64574;48.506;-2.750;2023-02-17T15:41:37;13.10;72.20
75621;DHT22;64574;48.506;-2.750;2023-02-17T15:44:05;13.10;72.00
75621;DHT22;64574;48.506;-2.750;2023-02-17T15:46:32;13.10;72.00
75621;DHT22;64574;48.506;-2.750;2023-02-17T15:48:58;13.10;72.20
75621;DHT22;64574;48.506;-2.750;2023-02-17T15:51:24;13.10;72.00
75621;DHT22;64574;48.506;-2.750;2023-02-17T15:53:50;13.10;72.00
75621;DHT22;64574;48.506;-2.750;2023-02-17T15:56:19;13.10;72.00
75621;DHT22;64574;48.506;-2.750;2023-02-17T15:58:46;13.00;72.10
75621;DHT22;64574;48.506;-2.750;2023-02-17T16:01:16;13.00;72.20
75621;DHT22;64574;48.506;-2.750;2023-02-17T16:03:44;13.00;72.30
75621;DHT22;64574;48.506;-2.750;2023-02-17T16:06:10;13.00;72.30
75621;DHT22;64574;48.506;-2.750;2023-02-17T16:08:36;13.00;71.70
75621;DHT22;64574;48.506;-2.750;2023-02-17T16:11:01;12.90;71.50
75621;DHT22;64574;48.506;-2.750;2023-02-17T16:13:27;12.80;71.40
75621;DHT22;64574;48.506;-2.750;2023-02-17T16:15:55;12.90;71.50
75621;DHT22;64574;48.506;-2.750;2023-02-17T16:18:22;12.90;70.60
75621;DHT22;64574;48.506;-2.750;2023-02-17T16:20:49;12.80;70.30
75621;DHT22;64574;48.506;-2.750;2023-02-17T16:23:14;12.80;70.50
75621;DHT22;64574;48.506;-2.750;2023-02-17T16:25:43;12.80;70.60
75621;DHT22;64574;48.506;-2.750;2023-02-17T16:28:20;12.80;70.70
75621;DHT22;64574;48.506;-2.750;2023-02-17T16:30:46;12.80;71.00
75621;DHT22;64574;48.506;-2.750;2023-02-17T16:33:14;12.80;71.50
75621;DHT22;64574;48.506;-2.750;2023-02-17T16:35:40;12.80;71.70
75621;DHT22;64574;48.506;-2.750;2023-02-17T16:38:15;12.80;71.60
75621;DHT22;64574;48.506;-2.750;2023-02-17T16:40:47;12.80;71.50
75621;DHT22;64574;48.506;-2.750;2023-02-17T16:43:15;12.80;71.60
75621;DHT22;64574;48.506;-2.750;2023-02-17T16:45:53;12.70;71.10
75621;DHT22;64574;48.506;-2.750;2023-02-17T16:48:22;12.70;70.20
75621;DHT22;64574;48.506;-2.750;2023-02-17T16:50:48;12.70;70.00
75621;DHT22;64574;48.506;-2.750;2023-02-17T16:53:13;12.70;70.10
75621;DHT22;64574;48.506;-2.750;2023-02-17T16:55:40;12.70;70.20
75621;DHT22;64574;48.506;-2.750;2023-02-17T16:58:13;12.70;70.30
75621;DHT22;64574;48.506;-2.750;2023-02-17T17:00:39;12.70;70.40
75621;DHT22;64574;48.506;-2.750;2023-02-17T17:03:05;12.70;70.50
75621;DHT22;64574;48.506;-2.750;2023-02-17T17:05:30;12.70;70.50
75621;DHT22;64574;48.506;-2.750;2023-02-17T17:07:56;12.60;70.90
75621;DHT22;64574;48.506;-2.750;2023-02-17T17:10:25;12.60;71.20
75621;DHT22;64574;48.506;-2.750;2023-02-17T17:12:52;12.50;71.30